Time;durP1;ratioP1;P1;durP2;ratioP2;P2;SDS_P1;SDS_P2;PMS_P1;PMS_P2;Temp;Humidity;BMP_temperature;BMP_pressure;BME280_temperature;BME280_humidity;BME280_pressure;Samples;Min_cycle;Max_cycle;Signal;HPM_P1;HPM_P2
2023/04/29 00:00:38;;;;;;;2.60;2.50;;;16.30;66.00;;;;;;20727;6842;118709;-79
2023/04/29 00:03:03;;;;;;;3.12;2.60;;;16.20;66.00;;;;;;20518;6842;336790;-78
2023/04/29 00:05:29;;;;;;;2.90;2.70;;;16.20;66.20;;;;;;20516;6842;280600;-78
2023/04/29 00:07:55;;;;;;;2.63;2.50;;;16.40;65.40;;;;;;20730;6842;118311;-78
2023/04/29 00:10:21;;;;;;;2.33;2.17;;;16.30;65.40;;;;;;20711;6842;118866;-77
2023/04/29 00:12:50;;;;;;;2.83;2.20;;;16.00;66.10;;;;;;20726;6842;121098;-78
2023/04/29 00:15:16;;;;;;;2.80;2.53;;;15.70;67.00;;;;;;20729;6840;117996;-79
2023/04/29 00:17:42;;;;;;;3.00;2.80;;;15.50;67.80;;;;;;20519;6841;307702;-79
2023/04/29 00:20:08;;;;;;;2.83;2.67;;;15.70;68.20;;;;;;20502;6841;336276;-78
2023/04/29 00:22:35;;;;;;;3.00;2.70;;;16.00;67.50;;;;;;20521;6841;281228;-79
2023/04/29 00:25:00;;;;;;;3.07;2.87;;;16.30;66.50;;;;;;20507;6841;278223;-78
2023/04/29 00:27:26;;;;;;;2.45;2.25;;;16.50;65.80;;;;;;20740;6842;117495;-78
2023/04/29 00:29:51;;;;;;;2.47;2.37;;;16.30;65.70;;;;;;20731;6842;117105;-78
2023/04/29 00:32:17;;;;;;;3.10;3.00;;;16.00;66.70;;;;;;20506;6842;278667;-78
2023/04/29 00:34:43;;;;;;;3.27;2.40;;;16.10;67.40;;;;;;20726;6842;117344;-77
2023/04/29 00:37:08;;;;;;;3.00;2.78;;;16.00;67.30;;;;;;20513;6842;312358;-78
2023/04/29 00:39:34;;;;;;;2.90;2.80;;;16.10;67.40;;;;;;20731;6842;117557;-78
2023/04/29 00:41:59;;;;;;;4.00;2.70;;;16.00;67.30;;;;;;20518;6842;337289;-78
2023/04/29 00:44:26;;;;;;;3.72;3.20;;;16.30;66.70;;;;;;20525;6842;311281;-77
2023/04/29 00:46:51;;;;;;;2.70;2.60;;;16.30;66.70;;;;;;20730;6842;117262;-78
2023/04/29 00:49:17;;;;;;;3.12;2.95;;;16.20;66.50;;;;;;20523;6842;307355;-78
2023/04/29 00:51:42;;;;;;;3.25;2.62;;;16.20;66.60;;;;;;20739;6842;117029;-78
2023/04/29 00:54:08;;;;;;;2.67;2.58;;;16.10;66.50;;;;;;20707;6842;130197;-78
2023/04/29 00:56:33;;;;;;;4.20;3.10;;;15.80;67.30;;;;;;20509;6842;308074;-78
2023/04/29 00:58:59;;;;;;;3.13;2.93;;;15.90;67.30;;;;;;20723;6842;117734;-77
2023/04/29 01:01:24;;;;;;;3.78;3.25;;;15.90;67.20;;;;;;20497;6842;311370;-78
2023/04/29 01:03:50;;;;;;;2.90;2.77;;;15.90;66.90;;;;;;20726;6842;117573;-78
2023/04/29 01:06:27;;;;;;;3.97;3.40;;;15.90;66.90;;;;;;20497;6842;337941;-78
2023/04/29 01:09:00;;;;;;;4.03;3.60;;;15.90;66.80;;;;;;20497;6842;308514;-78
2023/04/29 01:11:26;;;;;;;3.60;3.30;;;16.20;65.90;;;;;;20095;6842;336808;-79
2023/04/29 01:13:55;;;;;;;4.20;3.72;;;16.30;65.00;;;;;;20507;6842;326938;-78
2023/04/29 01:16:24;;;;;;;3.07;2.90;;;16.20;64.60;;;;;;20684;6842;117238;-77
2023/04/29 01:18:55;;;;;;;3.40;3.10;;;16.20;64.60;;;;;;20702;6842;119510;-80
2023/04/29 01:21:21;;;;;;;4.40;4.00;;;15.90;66.30;;;;;;20492;6842;313060;-77
2023/04/29 01:23:54;;;;;;;10.83;3.80;;;15.90;66.20;;;;;;20720;6842;117601;-77
2023/04/29 01:26:13;;;;;;;4.68;4.28;;;15.80;66.10;;;;;;20385;6840;278320;-77
2023/04/29 01:28:42;;;;;;;7.80;4.43;;;15.80;65.10;;;;;;20745;6841;116878;-75
2023/04/29 01:31:11;;;;;;;4.43;3.60;;;15.70;65.20;;;;;;20649;6841;118549;-76
2023/04/29 01:33:46;;;;;;;5.63;4.60;;;15.40;65.90;;;;;;20531;6841;307177;-76
2023/04/29 01:36:12;;;;;;;4.10;3.90;;;15.50;65.70;;;;;;20714;6841;117413;-76
2023/04/29 01:38:41;;;;;;;4.22;3.60;;;15.10;66.30;;;;;;20714;6842;121070;-77
2023/04/29 01:41:16;;;;;;;4.30;4.00;;;15.10;66.30;;;;;;20497;6842;279011;-76
2023/04/29 01:43:39;;;;;;;4.10;3.90;;;15.30;66.50;;;;;;20699;6842;123552;-77
2023/04/29 01:46:04;;;;;;;41.90;5.90;;;15.20;66.30;;;;;;20699;6842;120768;-77
2023/04/29 01:48:31;;;;;;;248.38;12.27;;;15.00;66.80;;;;;;20512;6842;284018;-77
2023/04/29 01:50:56;;;;;;;693.28;21.10;;;15.10;66.80;;;;;;20515;6842;308250;-77
2023/04/29 01:53:22;;;;;;;852.47;23.12;;;15.40;66.30;;;;;;20515;6842;339742;-77
2023/04/29 01:55:48;;;;;;;560.77;16.47;;;15.70;65.20;;;;;;20515;6842;312514;-77
2023/04/29 01:58:14;;;;;;;134.33;8.90;;;15.70;64.90;;;;;;20706;6842;117728;-77
2023/04/29 02:00:40;;;;;;;39.13;5.63;;;15.60;64.80;;;;;;20731;6842;117637;-77
2023/04/29 02:03:05;;;;;;;21.42;4.75;;;15.30;65.80;;;;;;20755;6842;118054;-76
2023/04/29 02:05:32;;;;;;;8.07;5.70;;;15.20;67.50;;;;;;20518;6842;309086;-75
2023/04/29 02:07:57;;;;;;;5.50;4.93;;;15.20;67.40;;;;;;20748;6842;118157;-76
2023/04/29 02:10:22;;;;;;;4.50;4.10;;;15.10;67.20;;;;;;20762;6842;119508;-77
2023/04/29 02:12:48;;;;;;;6.15;5.75;;;14.90;67.80;;;;;;20589;6842;277959;-77
2023/04/29 02:15:14;;;;;;;6.20;5.70;;;15.00;68.20;;;;;;20486;6842;306747;-77
2023/04/29 02:17:40;;;;;;;4.70;4.30;;;15.30;67.40;;;;;;20793;6842;67702;-77
2023/04/29 02:20:06;;;;;;;4.20;3.90;;;15.30;67.30;;;;;;20776;6842;67827;-76
2023/04/29 02:22:32;;;;;;;3.87;3.67;;;15.00;68.00;;;;;;20693;6842;120850;-78
2023/04/29 02:24:59;;;;;;;5.20;4.78;;;14.80;68.90;;;;;;20543;6842;315415;-78
2023/04/29 02:27:25;;;;;;;5.50;5.00;;;15.00;69.50;;;;;;20500;6842;279050;-79
2023/04/29 02:29:50;;;;;;;5.00;4.70;;;15.30;68.20;;;;;;20517;6842;307666;-78
2023/04/29 02:32:18;;;;;;;4.00;3.80;;;15.60;67.50;;;;;;20712;6842;117712;-76
2023/04/29 02:34:41;;;;;;;4.65;4.28;;;15.50;66.80;;;;;;20519;6842;279017;-74
2023/04/29 02:37:07;;;;;;;4.62;4.28;;;15.50;67.20;;;;;;20733;6840;117673;-77
2023/04/29 02:39:32;;;;;;;3.93;3.67;;;15.40;67.40;;;;;;20733;6841;117398;-81
2023/04/29 02:41:58;;;;;;;3.20;3.00;;;15.20;68.20;;;;;;20711;6841;118268;-80
2023/04/29 02:44:23;;;;;;;4.60;4.30;;;14.90;69.00;;;;;;20445;6841;277920;-79
2023/04/29 02:46:49;;;;;;;4.50;4.10;;;15.10;69.20;;;;;;20663;6841;117195;-77
2023/04/29 02:49:14;;;;;;;4.05;3.75;;;15.10;68.80;;;;;;20655;6842;117552;-81
2023/04/29 02:51:41;;;;;;;3.42;3.12;;;14.70;69.90;;;;;;20642;6842;117265;-78
2023/04/29 02:54:08;;;;;;;4.30;3.57;;;14.70;69.80;;;;;;20658;6842;123074;-77
2023/04/29 02:56:33;;;;;;;3.37;2.93;;;14.60;70.30;;;;;;20675;6842;118413;-77
2023/04/29 02:58:59;;;;;;;3.70;3.50;;;14.50;70.80;;;;;;20656;6842;117242;-78
2023/04/29 03:01:26;;;;;;;3.35;3.15;;;14.30;71.40;;;;;;20672;6842;121538;-77
2023/04/29 03:03:51;;;;;;;3.27;3.17;;;14.30;71.40;;;;;;20685;6842;117612;-77
2023/04/29 03:06:16;;;;;;;4.35;4.00;;;14.20;71.60;;;;;;20458;6842;278383;-77
2023/04/29 03:08:42;;;;;;;3.90;3.60;;;14.50;71.50;;;;;;20723;6842;121289;-78
2023/04/29 03:11:07;;;;;;;4.10;3.90;;;14.60;70.70;;;;;;20522;6842;307849;-79
2023/04/29 03:13:33;;;;;;;4.10;3.80;;;14.80;70.50;;;;;;20531;6842;277934;-77
2023/04/29 03:15:59;;;;;;;4.03;3.72;;;15.20;68.90;;;;;;20527;6842;308571;-77
2023/04/29 03:18:24;;;;;;;4.00;3.70;;;15.50;67.70;;;;;;20493;6842;308336;-76
2023/04/29 03:20:50;;;;;;;3.92;3.72;;;15.60;66.50;;;;;;20510;6842;342879;-76
2023/04/29 03:23:15;;;;;;;3.37;3.17;;;15.80;65.70;;;;;;20727;6842;117643;-77
2023/04/29 03:25:41;;;;;;;3.60;3.30;;;15.60;65.80;;;;;;20726;6842;117427;-77
2023/04/29 03:28:06;;;;;;;3.40;3.20;;;15.30;66.90;;;;;;20710;6842;118421;-76
2023/04/29 03:30:33;;;;;;;4.10;3.80;;;15.10;67.90;;;;;;20506;6842;302844;-76
2023/04/29 03:32:58;;;;;;;3.27;3.07;;;15.10;67.90;;;;;;20728;6842;119679;-76
2023/04/29 03:35:24;;;;;;;4.15;3.87;;;15.00;67.80;;;;;;20511;6842;278281;-76
2023/04/29 03:37:49;;;;;;;3.63;3.43;;;15.20;67.80;;;;;;20728;6842;121290;-77
2023/04/29 03:40:15;;;;;;;3.78;3.58;;;15.10;67.60;;;;;;20495;6842;337199;-76
2023/04/29 03:42:40;;;;;;;3.43;3.23;;;15.20;67.50;;;;;;20724;6842;117365;-77
2023/04/29 03:45:06;;;;;;;2.92;2.65;;;15.20;67.50;;;;;;20727;6842;118923;-77
2023/04/29 03:47:32;;;;;;;3.70;3.50;;;14.90;68.10;;;;;;20509;6842;302415;-76
2023/04/29 03:49:57;;;;;;;3.30;3.20;;;15.10;67.90;;;;;;20729;6840;117302;-77
2023/04/29 03:52:23;;;;;;;46.55;5.72;;;15.00;67.50;;;;;;20500;6841;308752;-76
2023/04/29 03:54:49;;;;;;;56.50;6.77;;;15.10;66.40;;;;;;20721;6841;121151;-76
2023/04/29 03:57:15;;;;;;;48.03;5.35;;;15.00;66.30;;;;;;20514;6841;308056;-76
2023/04/29 03:59:40;;;;;;;32.90;4.85;;;15.10;65.70;;;;;;20728;6841;121032;-77
2023/04/29 04:02:06;;;;;;;8.40;3.40;;;15.00;65.70;;;;;;20717;6842;119487;-76
2023/04/29 04:04:32;;;;;;;256.40;9.55;;;14.80;65.20;;;;;;20525;6842;281836;-76
2023/04/29 04:06:58;;;;;;;4.20;4.00;;;14.80;65.20;;;;;;20516;6842;301538;-76
2023/04/29 04:09:23;;;;;;;4.00;3.70;;;15.10;64.00;;;;;;20727;6842;119394;-77
2023/04/29 04:11:49;;;;;;;11.80;10.75;;;14.90;64.00;;;;;;20725;6842;117706;-76
2023/04/29 04:14:15;;;;;;;4.45;4.12;;;14.70;65.00;;;;;;20504;6842;280755;-80
2023/04/29 04:16:40;;;;;;;11.80;10.90;;;14.70;65.40;;;;;;20516;6842;282972;-77
2023/04/29 04:19:07;;;;;;;4.45;4.15;;;15.00;64.70;;;;;;20515;6842;338269;-76
2023/04/29 04:21:33;;;;;;;3.17;3.03;;;15.10;63.70;;;;;;20728;6842;118748;-76
2023/04/29 04:24:00;;;;;;;3.47;3.17;;;15.00;63.60;;;;;;20718;6842;117206;-76
2023/04/29 04:26:26;;;;;;;2.87;2.77;;;14.80;64.70;;;;;;20738;6842;117467;-76
2023/04/29 04:28:51;;;;;;;3.40;3.30;;;14.50;65.70;;;;;;20527;6842;277782;-76
2023/04/29 04:31:17;;;;;;;3.63;3.33;;;14.60;66.40;;;;;;20728;6842;119538;-76
2023/04/29 04:33:42;;;;;;;3.40;3.30;;;14.60;66.20;;;;;;20523;6842;309585;-77
2023/04/29 04:36:08;;;;;;;4.50;4.10;;;14.80;65.90;;;;;;20486;6842;312651;-78
2023/04/29 04:38:34;;;;;;;3.30;3.10;;;15.10;65.10;;;;;;20718;6842;118795;-76
2023/04/29 04:41:00;;;;;;;4.43;4.13;;;15.00;65.10;;;;;;20513;6842;312062;-78
2023/04/29 04:43:25;;;;;;;3.73;3.63;;;15.10;65.20;;;;;;20508;6842;308134;-77
2023/04/29 04:45:50;;;;;;;3.83;3.60;;;15.30;64.30;;;;;;20724;6842;118619;-78
2023/04/29 04:48:19;;;;;;;3.53;3.33;;;14.90;65.10;;;;;;20712;6842;120141;-77
2023/04/29 04:50:46;;;;;;;3.30;3.20;;;14.90;65.10;;;;;;20734;6842;117482;-77
2023/04/29 04:53:11;;;;;;;4.30;4.10;;;14.70;66.10;;;;;;20508;6842;336044;-77
2023/04/29 04:55:36;;;;;;;3.60;3.50;;;14.80;66.50;;;;;;20732;6842;119204;-77
2023/04/29 04:58:02;;;;;;;5.73;4.17;;;14.80;66.40;;;;;;20490;6842;341569;-77
2023/04/29 05:00:27;;;;;;;3.90;3.50;;;15.00;66.10;;;;;;20726;6840;118992;-77
2023/04/29 05:02:54;;;;;;;4.27;3.43;;;14.70;66.60;;;;;;20729;6841;117898;-77
2023/04/29 05:05:19;;;;;;;3.60;3.40;;;14.70;66.60;;;;;;20718;6841;117981;-78
2023/04/29 05:07:45;;;;;;;4.40;4.10;;;14.60;67.60;;;;;;20511;6841;277804;-77
2023/04/29 05:10:10;;;;;;;3.90;3.57;;;14.80;68.00;;;;;;20700;6841;117268;-78
2023/04/29 05:12:36;;;;;;;4.90;4.60;;;14.80;67.60;;;;;;20514;6842;336811;-76
2023/04/29 05:15:01;;;;;;;3.70;3.50;;;15.00;67.40;;;;;;20718;6842;117060;-77
2023/04/29 05:17:29;;;;;;;3.93;3.70;;;14.80;67.30;;;;;;20729;6842;117328;-77
2023/04/29 05:19:55;;;;;;;3.73;3.53;;;14.70;68.00;;;;;;20718;6842;119637;-79
2023/04/29 05:22:23;;;;;;;4.82;4.50;;;14.60;67.90;;;;;;20490;6841;278668;-78
2023/04/29 05:24:50;;;;;;;5.15;4.85;;;14.80;67.60;;;;;;20516;6842;278394;-77
2023/04/29 05:27:18;;;;;;;4.82;4.53;;;15.20;66.30;;;;;;20513;6842;317572;-78
2023/04/29 05:29:43;;;;;;;3.80;3.50;;;15.50;65.30;;;;;;20720;6842;123468;-77
2023/04/29 05:32:09;;;;;;;4.55;4.15;;;15.10;66.60;;;;;;20682;6842;127006;-76
2023/04/29 05:34:35;;;;;;;5.30;4.90;;;15.10;66.00;;;;;;20438;6842;337873;-78
2023/04/29 05:37:01;;;;;;;4.47;4.07;;;15.20;66.10;;;;;;20493;6842;307192;-76
2023/04/29 05:39:27;;;;;;;4.63;4.33;;;15.70;63.60;;;;;;20518;6842;308305;-74
2023/04/29 05:41:53;;;;;;;4.37;4.15;;;15.90;64.10;;;;;;20498;6842;308577;-73
2023/04/29 05:44:18;;;;;;;3.50;3.40;;;15.90;63.60;;;;;;20713;6842;123460;-73
2023/04/29 05:46:45;;;;;;;3.90;3.70;;;15.70;63.80;;;;;;20732;6842;117925;-75
2023/04/29 05:49:10;;;;;;;3.40;3.30;;;15.40;64.90;;;;;;20721;6842;118715;-76
2023/04/29 05:51:36;;;;;;;3.40;3.13;;;15.10;65.80;;;;;;20726;6842;117141;-77
2023/04/29 05:54:02;;;;;;;3.67;3.47;;;15.00;66.70;;;;;;20704;6842;118468;-76
2023/04/29 05:56:27;;;;;;;7.95;4.00;;;14.80;67.30;;;;;;20511;6842;307697;-77
2023/04/29 05:58:53;;;;;;;3.65;3.45;;;15.00;67.10;;;;;;20720;6842;118517;-76
2023/04/29 06:01:19;;;;;;;4.05;3.80;;;15.10;66.80;;;;;;20512;6842;308601;-75
2023/04/29 06:03:44;;;;;;;4.30;4.00;;;15.30;66.70;;;;;;20531;6842;278718;-72
2023/04/29 06:06:11;;;;;;;3.80;3.60;;;15.60;65.30;;;;;;20711;6842;117784;-77
2023/04/29 06:08:36;;;;;;;4.30;4.10;;;15.60;65.20;;;;;;20517;6842;279005;-77
2023/04/29 06:11:04;;;;;;;4.30;4.00;;;15.70;65.20;;;;;;20522;6842;307109;-77
2023/04/29 06:13:29;;;;;;;3.53;3.43;;;15.90;64.30;;;;;;20686;6840;120020;-78
2023/04/29 06:15:53;;;;;;;4.00;3.80;;;15.90;64.40;;;;;;20504;6841;312753;-77
2023/04/29 06:18:19;;;;;;;3.30;3.20;;;15.90;64.20;;;;;;20692;6841;120186;-76
2023/04/29 06:20:44;;;;;;;3.87;3.72;;;15.90;64.50;;;;;;20495;6841;277650;-75
2023/04/29 06:23:11;;;;;;;3.37;3.17;;;15.90;64.90;;;;;;20515;6842;315838;-76
2023/04/29 06:25:37;;;;;;;3.50;3.40;;;16.20;64.60;;;;;;20540;6842;336651;-76
2023/04/29 06:28:03;;;;;;;3.10;3.00;;;16.50;64.90;;;;;;20486;6842;308506;-76
2023/04/29 06:30:31;;;;;;;3.30;3.10;;;17.00;62.00;;;;;;20519;6842;295643;-76
2023/04/29 06:32:56;;;;;;;3.17;2.90;;;17.00;62.00;;;;;;20721;6842;117026;-75
2023/04/29 06:35:22;;;;;;;2.70;2.60;;;16.90;62.50;;;;;;20731;6842;117729;-76
2023/04/29 06:37:47;;;;;;;2.70;2.60;;;16.70;63.40;;;;;;20725;6842;119761;-76
2023/04/29 06:40:13;;;;;;;2.87;2.77;;;16.60;64.40;;;;;;20490;6842;322030;-76
2023/04/29 06:42:39;;;;;;;2.30;2.20;;;16.90;64.00;;;;;;20726;6842;119486;-76
2023/04/29 06:45:04;;;;;;;2.47;2.37;;;17.00;64.00;;;;;;20722;6842;117296;-76
2023/04/29 06:47:30;;;;;;;2.07;2.07;;;17.10;65.20;;;;;;20727;6842;117639;-76
2023/04/29 06:49:56;;;;;;;2.77;2.60;;;17.30;65.90;;;;;;20726;6842;119254;-76
2023/04/29 06:52:21;;;;;;;2.90;2.60;;;17.40;65.50;;;;;;20509;6842;307771;-76
2023/04/29 06:54:46;;;;;;;4.50;2.60;;;17.70;61.70;;;;;;20533;6842;278552;-76
2023/04/29 06:57:12;;;;;;;2.47;2.28;;;18.20;60.00;;;;;;20526;6842;321447;-76
2023/04/29 06:59:37;;;;;;;2.65;1.80;;;18.60;58.70;;;;;;20535;6842;278227;-76
2023/04/29 07:02:03;;;;;;;2.20;2.00;;;19.00;57.00;;;;;;20707;6842;119881;-76
2023/04/29 07:04:30;;;;;;;2.10;2.00;;;19.10;57.60;;;;;;20507;6842;340437;-76
2023/04/29 07:06:55;;;;;;;2.30;1.90;;;19.20;57.60;;;;;;20513;6842;337271;-76
2023/04/29 07:09:25;;;;;;;2.20;1.90;;;19.40;54.40;;;;;;20519;6842;336756;-76
2023/04/29 07:11:48;;;;;;;2.00;1.90;;;19.50;54.00;;;;;;20503;6842;336483;-76
2023/04/29 07:14:14;;;;;;;2.20;2.00;;;19.50;53.90;;;;;;20502;6842;307298;-75
2023/04/29 07:16:40;;;;;;;1.47;1.43;;;19.20;54.70;;;;;;20724;6842;117820;-75
2023/04/29 07:19:06;;;;;;;2.03;1.80;;;19.30;54.80;;;;;;20726;6842;119279;-75
2023/04/29 07:21:31;;;;;;;2.15;1.80;;;18.90;56.70;;;;;;20528;6842;298531;-76
2023/04/29 07:23:59;;;;;;;1.60;1.50;;;19.00;55.70;;;;;;20743;6840;117116;-76
2023/04/29 07:26:22;;;;;;;1.40;1.40;;;19.10;56.50;;;;;;20706;6841;118992;-76
2023/04/29 07:28:48;;;;;;;2.83;1.70;;;19.10;57.00;;;;;;20519;6841;310016;-78
2023/04/29 07:31:14;;;;;;;2.15;1.40;;;19.40;55.00;;;;;;20519;6841;307250;-75
2023/04/29 07:33:39;;;;;;;1.30;1.20;;;19.90;53.60;;;;;;20497;6841;313060;-75
2023/04/29 07:36:09;;;;;;;1.20;1.10;;;20.50;48.90;;;;;;20493;6842;307140;-75
2023/04/29 07:38:31;;;;;;;1.52;1.33;;;20.40;48.80;;;;;;20495;6842;312524;-75
2023/04/29 07:40:57;;;;;;;3.33;1.27;;;20.50;48.70;;;;;;20730;6842;117679;-75
2023/04/29 07:43:22;;;;;;;1.65;1.60;;;20.20;49.80;;;;;;20729;6842;118463;-76
2023/04/29 07:45:50;;;;;;;1.30;1.30;;;19.70;50.90;;;;;;20518;6842;278034;-78
2023/04/29 07:48:16;;;;;;;1.30;1.30;;;19.60;50.40;;;;;;20492;6842;295973;-77
2023/04/29 07:50:43;;;;;;;2.03;1.20;;;19.70;50.20;;;;;;20519;6842;307723;-78
2023/04/29 07:53:08;;;;;;;1.27;1.10;;;19.70;49.90;;;;;;20728;6842;117505;-73
2023/04/29 07:55:34;;;;;;;2.33;2.22;;;19.50;50.50;;;;;;20726;6842;120739;-73
2023/04/29 07:57:59;;;;;;;1.83;1.62;;;19.10;51.10;;;;;;20522;6842;278235;-73
2023/04/29 08:00:26;;;;;;;1.87;1.50;;;19.10;50.50;;;;;;20511;6842;309794;-73
2023/04/29 08:02:53;;;;;;;1.73;1.70;;;19.20;50.70;;;;;;20717;6842;117597;-73
2023/04/29 08:05:20;;;;;;;1.50;1.40;;;19.00;51.30;;;;;;20721;6842;117611;-73
2023/04/29 08:07:45;;;;;;;1.20;1.20;;;18.30;52.60;;;;;;20711;6842;118343;-74
2023/04/29 08:10:11;;;;;;;1.67;1.50;;;18.30;52.50;;;;;;20687;6842;122184;-73
2023/04/29 08:12:36;;;;;;;1.63;1.60;;;18.00;52.80;;;;;;20713;6842;119884;-73
2023/04/29 08:15:02;;;;;;;1.67;1.58;;;17.80;53.00;;;;;;20494;6842;336340;-74
2023/04/29 08:17:27;;;;;;;1.60;1.60;;;18.00;52.10;;;;;;20704;6842;117527;-73
2023/04/29 08:19:53;;;;;;;10.55;1.55;;;18.10;52.40;;;;;;20699;6842;119222;-73
2023/04/29 08:22:19;;;;;;;55.15;44.70;;;18.10;53.20;;;;;;20461;6842;343952;-75
2023/04/29 08:24:45;;;;;;;13.80;11.60;;;18.50;50.40;;;;;;20702;6842;121919;-75
2023/04/29 08:27:12;;;;;;;2.20;2.10;;;18.80;50.70;;;;;;20689;6842;117558;-75
2023/04/29 08:29:38;;;;;;;1.20;1.20;;;18.90;51.00;;;;;;20711;6842;118243;-76
2023/04/29 08:32:03;;;;;;;1.27;1.27;;;19.10;51.00;;;;;;20492;6842;278604;-73
2023/04/29 08:34:29;;;;;;;0.80;0.80;;;19.50;48.40;;;;;;20724;6842;117305;-74
2023/04/29 08:36:54;;;;;;;2.12;1.05;;;19.60;48.70;;;;;;20510;6839;277628;-74
2023/04/29 08:39:20;;;;;;;1.70;0.90;;;19.80;47.10;;;;;;20515;6841;313988;-74
2023/04/29 08:41:49;;;;;;;1.37;1.00;;;20.20;46.50;;;;;;20514;6841;307847;-74
2023/04/29 08:44:12;;;;;;;2.70;1.00;;;20.70;47.00;;;;;;20683;6841;119329;-73
2023/04/29 08:46:39;;;;;;;1.67;1.00;;;21.10;47.70;;;;;;20711;6842;117376;-75
2023/04/29 08:49:04;;;;;;;0.90;0.90;;;21.10;47.60;;;;;;20706;6842;118260;-72
2023/04/29 08:51:32;;;;;;;0.80;0.80;;;21.00;47.10;;;;;;20487;6842;308065;-73
2023/04/29 08:54:00;;;;;;;1.40;1.00;;;21.60;42.60;;;;;;20500;6842;308209;-74
2023/04/29 08:56:26;;;;;;;1.10;1.00;;;21.60;42.60;;;;;;20490;6842;307950;-76
2023/04/29 08:58:53;;;;;;;1.30;1.15;;;21.80;41.40;;;;;;20518;6842;278979;-74
2023/04/29 09:01:16;;;;;;;1.17;1.00;;;21.90;41.50;;;;;;20709;6842;119554;-76
2023/04/29 09:03:42;;;;;;;1.62;1.10;;;21.60;42.50;;;;;;20507;6842;307782;-76
2023/04/29 09:06:07;;;;;;;0.80;0.80;;;21.40;42.50;;;;;;20701;6842;123327;-75
2023/04/29 09:08:33;;;;;;;1.50;1.40;;;21.20;43.10;;;;;;20716;6842;118001;-75
2023/04/29 09:11:00;;;;;;;2.80;1.50;;;20.80;43.90;;;;;;20503;6842;307277;-76
2023/04/29 09:13:26;;;;;;;2.70;1.60;;;20.80;44.30;;;;;;20716;6842;119447;-74
2023/04/29 09:15:52;;;;;;;1.57;1.00;;;20.80;44.30;;;;;;20704;6842;117741;-75
2023/04/29 09:18:45;;;;;;;32.23;20.90;;;20.40;45.10;;;;;;20691;6842;119669;-76
2023/04/29 09:21:24;;;;;;;4.93;2.70;;;20.40;45.00;;;;;;20514;6842;278524;-76
2023/04/29 09:23:50;;;;;;;1.87;1.30;;;21.00;42.80;;;;;;20486;6842;308488;-74
2023/04/29 09:26:16;;;;;;;4.37;1.30;;;21.00;42.80;;;;;;20488;6842;308628;-77
2023/04/29 09:28:46;;;;;;;2.73;1.33;;;21.40;43.10;;;;;;20729;6842;116927;-75
2023/04/29 09:31:10;;;;;;;1.07;1.00;;;21.30;43.50;;;;;;20721;6842;118601;-75
2023/04/29 09:33:50;;;;;;;2.57;2.30;;;21.10;43.90;;;;;;20517;6842;308219;-76
2023/04/29 09:36:38;;;;;;;2.03;1.87;;;21.50;42.60;;;;;;20485;6842;308188;-75
2023/04/29 09:39:09;;;;;;;1.43;1.10;;;21.90;43.10;;;;;;20505;6842;307669;-77
2023/04/29 09:41:30;;;;;;;2.77;1.20;;;21.90;43.10;;;;;;20706;6842;122181;-76
2023/04/29 09:44:04;;;;;;;1.40;1.02;;;22.30;43.10;;;;;;20509;6842;309147;-76
2023/04/29 09:46:29;;;;;;;2.50;1.27;;;22.20;42.90;;;;;;20506;6842;312991;-76
2023/04/29 09:48:54;;;;;;;1.20;1.20;;;22.70;41.30;;;;;;20513;6840;279018;-75
2023/04/29 09:51:20;;;;;;;1.37;1.30;;;22.90;40.40;;;;;;20512;6841;280529;-76
2023/04/29 09:53:45;;;;;;;0.90;0.90;;;22.90;39.20;;;;;;20514;6841;308148;-74
2023/04/29 09:56:11;;;;;;;1.48;1.20;;;22.90;39.10;;;;;;20497;6841;280077;-72
2023/04/29 09:58:37;;;;;;;1.00;1.00;;;22.80;39.70;;;;;;20512;6842;279024;-73
2023/04/29 10:01:02;;;;;;;1.10;1.00;;;22.70;39.70;;;;;;20707;6842;117100;-73
2023/04/29 10:03:32;;;;;;;1.65;1.55;;;22.30;40.30;;;;;;20482;6842;281728;-73
2023/04/29 10:05:57;;;;;;;2.03;1.60;;;22.20;40.20;;;;;;20713;6842;122884;-73
2023/04/29 10:08:23;;;;;;;2.40;1.60;;;21.90;41.00;;;;;;20482;6842;325662;-72
2023/04/29 10:10:56;;;;;;;1.70;1.10;;;22.00;41.50;;;;;;20487;6842;278187;-76
2023/04/29 10:13:18;;;;;;;1.30;1.30;;;22.20;41.60;;;;;;20684;6842;121827;-74
2023/04/29 10:15:43;;;;;;;0.97;0.97;;;22.20;41.50;;;;;;20721;6842;118737;-72
2023/04/29 10:18:19;;;;;;;1.23;0.97;;;22.10;40.20;;;;;;20463;6842;307659;-72
2023/04/29 10:20:46;;;;;;;1.17;1.00;;;22.00;40.10;;;;;;20723;6842;118349;-73
2023/04/29 10:23:13;;;;;;;1.40;1.30;;;21.50;41.60;;;;;;20730;6842;117564;-73
2023/04/29 10:25:38;;;;;;;1.50;1.40;;;21.40;41.50;;;;;;20719;6842;117240;-73
2023/04/29 10:28:04;;;;;;;1.57;1.43;;;21.10;42.10;;;;;;20706;6842;121476;-73
2023/04/29 10:30:29;;;;;;;1.30;1.20;;;20.90;43.10;;;;;;20513;6842;294010;-72
2023/04/29 10:32:55;;;;;;;1.00;1.00;;;21.10;43.20;;;;;;20721;6842;120339;-75
2023/04/29 10:35:24;;;;;;;0.93;0.93;;;21.10;43.40;;;;;;20506;6842;301580;-74
2023/04/29 10:37:49;;;;;;;1.10;1.10;;;21.20;42.20;;;;;;20724;6842;118566;-75
2023/04/29 10:40:17;;;;;;;1.00;1.00;;;21.30;41.60;;;;;;20496;6842;289306;-74
2023/04/29 10:42:42;;;;;;;1.25;1.10;;;21.30;41.60;;;;;;20507;6842;336354;-77
2023/04/29 10:45:26;;;;;;;1.58;1.05;;;21.60;41.80;;;;;;20512;6842;307777;-75
2023/04/29 10:48:01;;;;;;;1.43;1.00;;;21.90;41.00;;;;;;20732;6842;117514;-73
2023/04/29 10:50:50;;;;;;;1.23;1.23;;;21.90;41.80;;;;;;20761;6842;117889;-76
2023/04/29 10:53:19;;;;;;;2.00;0.90;;;21.70;42.80;;;;;;20514;6842;292630;-76
2023/04/29 10:55:48;;;;;;;1.57;1.47;;;22.00;41.80;;;;;;20718;6842;118716;-78
2023/04/29 10:58:33;;;;;;;0.93;0.93;;;22.00;41.80;;;;;;20694;6840;118075;-77
2023/04/29 11:00:59;;;;;;;1.00;1.00;;;21.80;42.50;;;;;;20729;6841;119153;-77
2023/04/29 11:03:48;;;;;;;1.50;1.50;;;21.70;43.00;;;;;;20731;6841;116946;-75
2023/04/29 11:06:14;;;;;;;2.20;1.30;;;22.00;43.10;;;;;;20499;6841;278626;-76
2023/04/29 11:08:39;;;;;;;1.30;1.20;;;22.00;43.00;;;;;;20727;6841;118399;-75
2023/04/29 11:11:08;;;;;;;1.00;1.00;;;22.10;42.60;;;;;;20727;6842;117668;-74
2023/04/29 11:13:37;;;;;;;1.00;1.00;;;22.00;42.20;;;;;;20517;6842;307254;-76
2023/04/29 11:16:05;;;;;;;1.00;1.00;;;22.10;40.40;;;;;;20486;6842;282384;-76
2023/04/29 11:18:31;;;;;;;2.13;0.90;;;22.40;40.50;;;;;;20722;6842;118511;-74
2023/04/29 11:21:03;;;;;;;2.23;1.40;;;22.20;41.30;;;;;;20727;6842;120966;-75
2023/04/29 11:23:29;;;;;;;1.20;1.10;;;22.20;41.30;;;;;;20717;6842;118028;-75
2023/04/29 11:25:55;;;;;;;1.25;1.17;;;22.00;41.90;;;;;;20460;6842;339935;-74
2023/04/29 11:28:20;;;;;;;1.30;1.30;;;22.00;41.10;;;;;;20489;6842;278819;-75
2023/04/29 11:30:45;;;;;;;1.27;1.00;;;22.40;41.80;;;;;;20512;6842;310705;-74
2023/04/29 11:33:11;;;;;;;1.15;1.05;;;22.70;40.80;;;;;;20506;6842;308145;-76
2023/04/29 11:35:37;;;;;;;1.10;1.10;;;23.00;38.90;;;;;;20516;6842;313195;-75
2023/04/29 11:38:04;;;;;;;0.87;0.87;;;23.00;39.40;;;;;;20698;6842;123663;-79
2023/04/29 11:40:30;;;;;;;1.40;1.27;;;22.90;39.30;;;;;;20723;6842;118535;-77
2023/04/29 11:42:56;;;;;;;1.05;1.05;;;22.70;40.50;;;;;;20511;6842;296193;-74
2023/04/29 11:45:21;;;;;;;0.83;0.83;;;22.70;40.30;;;;;;20737;6842;117224;-74
2023/04/29 11:47:48;;;;;;;1.00;1.00;;;22.70;40.30;;;;;;20733;6842;118042;-75
2023/04/29 11:50:18;;;;;;;0.97;0.97;;;22.60;40.70;;;;;;20692;6842;118289;-75
2023/04/29 11:52:43;;;;;;;1.10;1.00;;;22.50;40.80;;;;;;20509;6842;277955;-73
2023/04/29 11:55:10;;;;;;;1.80;1.20;;;22.70;40.50;;;;;;20705;6842;119150;-75
2023/04/29 11:57:35;;;;;;;1.30;1.20;;;22.80;40.60;;;;;;20507;6842;308133;-78
2023/04/29 12:00:00;;;;;;;1.10;1.10;;;23.00;39.30;;;;;;20725;6842;118347;-76
2023/04/29 12:02:33;;;;;;;1.30;1.20;;;23.00;38.30;;;;;;20507;6842;312499;-74
2023/04/29 12:05:00;;;;;;;1.20;1.20;;;22.90;38.20;;;;;;20516;6842;282072;-76
2023/04/29 12:07:25;;;;;;;1.10;1.00;;;23.10;39.00;;;;;;20488;6842;278603;-75
2023/04/29 12:09:51;;;;;;;0.90;0.90;;;23.30;38.90;;;;;;20517;6840;308141;-75
2023/04/29 12:12:16;;;;;;;1.70;1.00;;;23.50;37.90;;;;;;20498;6841;283122;-80
2023/04/29 12:14:43;;;;;;;2.55;1.30;;;23.60;38.80;;;;;;20730;6841;117380;-80
2023/04/29 12:17:08;;;;;;;1.23;1.13;;;23.60;38.80;;;;;;20730;6841;117371;-79
2023/04/29 12:19:38;;;;;;;1.30;1.30;;;23.30;39.10;;;;;;20728;6841;118293;-80
2023/04/29 12:22:01;;;;;;;1.80;1.70;;;23.00;39.10;;;;;;20498;6842;307650;-79
2023/04/29 12:24:26;;;;;;;1.60;1.40;;;23.00;39.20;;;;;;20730;6842;117547;-80
2023/04/29 12:26:53;;;;;;;1.20;1.20;;;22.90;39.30;;;;;;20739;6842;117523;-80
2023/04/29 12:29:18;;;;;;;1.23;1.23;;;22.90;39.30;;;;;;20723;6842;117768;-80
2023/04/29 12:31:44;;;;;;;1.10;1.10;;;22.70;39.60;;;;;;20721;6842;117596;-80